createdAt,value
2022-08-12T00:00:09.645Z,85.00
2022-08-12T00:02:55.470Z,85.10
2022-08-12T00:05:58.281Z,85.10
2022-08-12T00:08:51.118Z,85.10
2022-08-12T00:11:36.922Z,85.20
2022-08-12T00:14:22.809Z,85.20
2022-08-12T00:17:09.139Z,85.20
2022-08-12T00:19:54.930Z,85.30
2022-08-12T00:22:42.079Z,85.40
2022-08-12T00:26:05.464Z,85.40
2022-08-12T00:28:34.434Z,85.30
2022-08-12T00:31:20.421Z,85.40
2022-08-12T00:34:06.260Z,85.50
2022-08-12T00:36:52.813Z,85.50
2022-08-12T00:39:40.784Z,85.40
2022-08-12T00:42:12.012Z,85.50
2022-08-12T00:44:43.204Z,85.50
2022-08-12T00:47:24.123Z,85.30
2022-08-12T00:49:54.315Z,85.40
2022-08-12T00:52:23.370Z,85.40
2022-08-12T00:54:54.238Z,85.40
2022-08-12T00:57:25.814Z,85.60
2022-08-12T00:59:56.117Z,85.70
2022-08-12T01:02:25.885Z,85.80
2022-08-12T01:05:13.010Z,85.90
2022-08-12T01:08:10.906Z,85.90
2022-08-12T01:10:59.261Z,85.90
2022-08-12T01:13:29.286Z,85.90
2022-08-12T01:15:59.129Z,86.00
2022-08-12T01:18:29.366Z,86.00
2022-08-12T01:21:21.035Z,86.10
2022-08-12T01:23:58.386Z,86.20
2022-08-12T01:26:28.467Z,86.30
2022-08-12T01:28:58.473Z,86.30
2022-08-12T01:31:28.070Z,86.30
2022-08-12T01:34:04.577Z,86.40
2022-08-12T01:36:37.704Z,86.40
2022-08-12T01:39:06.832Z,86.50
2022-08-12T01:41:41.223Z,86.60
2022-08-12T01:44:10.821Z,86.60
2022-08-12T01:46:45.091Z,86.60
2022-08-12T01:49:23.317Z,86.60
2022-08-12T01:52:20.063Z,86.60
2022-08-12T01:54:51.459Z,86.60
2022-08-12T01:57:58.636Z,86.50
2022-08-12T02:00:15.243Z,86.60
2022-08-12T02:02:47.019Z,86.80
2022-08-12T02:05:36.256Z,87.00
2022-08-12T02:08:36.120Z,87.10
2022-08-12T02:11:19.179Z,87.30
2022-08-12T02:13:51.970Z,87.50
2022-08-12T02:16:24.855Z,87.80
2022-08-12T02:19:00.321Z,88.00
2022-08-12T02:21:32.884Z,88.40
2022-08-12T02:24:02.179Z,88.50
2022-08-12T02:26:34.320Z,88.90
2022-08-12T02:29:04.767Z,89.00
2022-08-12T02:31:33.496Z,88.90
2022-08-12T02:34:02.816Z,89.00
2022-08-12T02:36:33.493Z,88.90
2022-08-12T02:39:04.698Z,89.10
2022-08-12T02:41:34.094Z,89.20
2022-08-12T02:44:07.663Z,90.00
2022-08-12T02:46:37.321Z,89.60
2022-08-12T02:49:11.854Z,89.80
2022-08-12T02:51:43.198Z,89.90
2022-08-12T02:54:12.353Z,90.00
2022-08-12T02:56:41.972Z,90.00
2022-08-12T02:59:27.956Z,90.10
2022-08-12T03:01:57.364Z,90.10
2022-08-12T03:04:27.585Z,90.20
2022-08-12T03:07:02.396Z,90.30
2022-08-12T03:09:55.349Z,90.30
2022-08-12T03:12:25.227Z,90.40
2022-08-12T03:14:56.139Z,90.40
2022-08-12T03:17:29.269Z,90.40
2022-08-12T03:20:08.630Z,90.50
2022-08-12T03:22:40.837Z,90.50
2022-08-12T03:25:13.826Z,90.60
2022-08-12T03:27:50.003Z,90.70
2022-08-12T03:30:21.287Z,90.80
2022-08-12T03:32:51.294Z,90.90
2022-08-12T03:35:40.695Z,90.90
2022-08-12T03:38:12.586Z,90.90
2022-08-12T03:41:04.273Z,91.00
2022-08-12T03:44:14.340Z,91.10
2022-08-12T03:47:04.367Z,91.00
2022-08-12T03:50:09.890Z,91.10
2022-08-12T03:52:55.903Z,91.10
2022-08-12T03:55:41.835Z,91.10
2022-08-12T03:58:29.256Z,91.10
2022-08-12T04:00:58.918Z,91.10
2022-08-12T04:03:46.384Z,91.20
2022-08-12T04:06:35.287Z,91.20
2022-08-12T04:09:16.140Z,91.20
2022-08-12T04:12:22.018Z,91.30
2022-08-12T04:14:57.160Z,91.30
2022-08-12T04:17:28.402Z,91.40
2022-08-12T04:19:59.593Z,91.40
2022-08-12T04:22:31.015Z,91.50
2022-08-12T04:25:01.604Z,91.50
2022-08-12T04:27:32.240Z,91.60
2022-08-12T04:30:16.758Z,91.70
2022-08-12T04:32:51.919Z,91.70
2022-08-12T04:35:22.219Z,91.70
2022-08-12T04:37:58.423Z,91.70
2022-08-12T04:40:30.301Z,91.70
2022-08-12T04:43:01.692Z,91.70
2022-08-12T04:45:31.128Z,91.70
2022-08-12T04:47:59.772Z,91.60
2022-08-12T04:50:36.148Z,91.50
2022-08-12T04:53:06.458Z,91.40
2022-08-12T04:55:35.932Z,91.30
2022-08-12T04:58:04.453Z,91.20
2022-08-12T05:00:33.213Z,91.00
2022-08-12T05:03:01.845Z,90.90
2022-08-12T05:05:36.098Z,90.80
2022-08-12T05:08:08.104Z,90.70
2022-08-12T05:10:36.726Z,90.60
2022-08-12T05:13:07.028Z,90.60
2022-08-12T05:15:36.291Z,90.60
2022-08-12T05:18:21.994Z,90.60
2022-08-12T05:20:52.283Z,90.70
2022-08-12T05:23:22.427Z,90.80
2022-08-12T05:25:52.269Z,90.80
2022-08-12T05:28:20.829Z,91.10
2022-08-12T05:30:49.767Z,90.70
2022-08-12T05:33:40.481Z,90.60
2022-08-12T05:36:12.797Z,90.60
2022-08-12T05:39:00.130Z,90.50
2022-08-12T05:41:29.564Z,90.40
2022-08-12T05:43:59.843Z,90.30
2022-08-12T05:46:29.746Z,90.20
2022-08-12T05:49:01.308Z,90.20
2022-08-12T05:51:39.494Z,90.10
2022-08-12T05:54:12.030Z,89.90
2022-08-12T05:56:41.711Z,89.40
2022-08-12T05:59:11.545Z,89.10
2022-08-12T06:02:12.593Z,88.90
2022-08-12T06:04:29.622Z,88.70
2022-08-12T06:06:59.718Z,88.40
2022-08-12T06:09:28.822Z,88.20
2022-08-12T06:12:06.084Z,87.90
2022-08-12T06:14:37.879Z,87.60
2022-08-12T06:17:09.389Z,87.40
2022-08-12T06:20:27.001Z,88.00
2022-08-12T06:22:28.342Z,87.10
2022-08-12T06:24:57.458Z,86.80
2022-08-12T06:27:25.950Z,86.50
2022-08-12T06:30:10.105Z,86.20
2022-08-12T06:32:51.736Z,85.80
2022-08-12T06:35:47.049Z,85.40
2022-08-12T06:38:20.046Z,84.60
2022-08-12T06:41:06.910Z,83.90
2022-08-12T06:44:06.745Z,83.20
2022-08-12T06:46:25.879Z,82.60
2022-08-12T06:48:57.694Z,82.20
2022-08-12T06:51:32.472Z,81.80
2022-08-12T06:54:04.777Z,81.40
2022-08-12T06:57:02.605Z,80.80
2022-08-12T06:59:24.916Z,80.10
2022-08-12T07:01:55.285Z,79.50
2022-08-12T07:04:39.666Z,78.90
2022-08-12T07:07:09.377Z,78.20
2022-08-12T07:10:01.227Z,77.90
2022-08-12T07:12:46.757Z,77.60
2022-08-12T07:15:16.639Z,77.10
2022-08-12T07:17:45.325Z,76.10
2022-08-12T07:20:42.598Z,75.60
2022-08-12T07:23:24.729Z,75.00
2022-08-12T07:25:58.332Z,74.70
2022-08-12T07:28:28.422Z,73.90
2022-08-12T07:30:57.733Z,73.60
2022-08-12T07:33:28.227Z,72.70
2022-08-12T07:35:58.169Z,71.70
2022-08-12T07:38:29.854Z,70.60
2022-08-12T07:41:03.581Z,70.00
2022-08-12T07:43:32.972Z,69.00
2022-08-12T07:46:04.707Z,68.50
2022-08-12T07:48:36.759Z,68.20
2022-08-12T07:51:05.887Z,67.90
2022-08-12T07:53:47.689Z,67.60
2022-08-12T07:56:25.474Z,67.60
2022-08-12T07:58:54.078Z,67.10
2022-08-12T08:01:23.428Z,66.50
2022-08-12T08:04:12.962Z,65.50
2022-08-12T08:06:45.090Z,64.90
2022-08-12T08:09:14.990Z,64.90
2022-08-12T08:12:02.048Z,64.70
2022-08-12T08:14:32.945Z,64.50
2022-08-12T08:17:03.876Z,64.50
2022-08-12T08:20:03.675Z,63.70
2022-08-12T08:22:41.471Z,63.50
2022-08-12T08:25:36.828Z,63.10
2022-08-12T08:28:10.029Z,62.70
2022-08-12T08:30:42.686Z,62.00
2022-08-12T08:33:17.872Z,62.30
2022-08-12T08:35:54.938Z,61.50
2022-08-12T08:38:32.651Z,61.30
2022-08-12T08:42:16.729Z,61.10
2022-08-12T08:44:13.101Z,61.10
2022-08-12T08:47:02.641Z,60.70
2022-08-12T08:49:31.587Z,60.70
2022-08-12T08:52:03.504Z,60.20
2022-08-12T08:54:33.621Z,59.90
2022-08-12T08:57:02.761Z,59.80
2022-08-12T08:59:33.318Z,59.50
2022-08-12T09:02:03.054Z,58.90
2022-08-12T09:05:12.752Z,58.70
2022-08-12T09:07:51.656Z,58.60
2022-08-12T09:10:34.321Z,58.40
2022-08-12T09:13:29.437Z,58.30
2022-08-12T09:16:13.356Z,58.00
2022-08-12T09:18:43.801Z,57.70
2022-08-12T09:21:14.258Z,57.40
2022-08-12T09:26:33.866Z,57.00
2022-08-12T09:29:15.925Z,56.40
2022-08-12T09:32:08.006Z,56.20
2022-08-12T09:34:37.637Z,56.10
2022-08-12T09:37:18.846Z,56.10
2022-08-12T09:42:07.093Z,55.50
2022-08-12T09:43:18.533Z,55.30
2022-08-12T09:46:06.465Z,54.50
2022-08-12T09:48:44.858Z,54.30
2022-08-12T09:51:37.929Z,54.30
2022-08-12T09:54:34.167Z,53.70
2022-08-12T09:58:08.110Z,53.90
2022-08-12T10:00:14.954Z,53.40
2022-08-12T10:02:57.193Z,53.40
2022-08-12T10:06:26.176Z,52.90
2022-08-12T10:08:23.849Z,52.30
2022-08-12T10:11:20.407Z,52.10
2022-08-12T10:13:52.836Z,51.80
2022-08-12T10:16:23.259Z,51.30
2022-08-12T10:18:54.926Z,51.60
2022-08-12T10:21:36.037Z,51.30
2022-08-12T10:24:07.460Z,51.30
2022-08-12T10:26:55.142Z,50.70
2022-08-12T10:30:37.334Z,50.30
2022-08-12T10:32:44.285Z,49.80
2022-08-12T10:35:17.160Z,49.30
2022-08-12T10:38:35.854Z,48.90
2022-08-12T10:40:58.950Z,49.00
2022-08-12T10:43:55.610Z,48.40
2022-08-12T10:46:49.057Z,48.30
2022-08-12T10:50:02.381Z,48.60
2022-08-12T10:52:34.082Z,48.30
2022-08-12T10:55:00.738Z,48.40
2022-08-12T10:58:13.689Z,48.10
2022-08-12T11:00:30.804Z,48.10
2022-08-12T11:04:24.857Z,48.00
2022-08-12T11:07:07.717Z,48.20
2022-08-12T11:08:46.465Z,47.70
2022-08-12T11:12:35.748Z,47.50
2022-08-12T11:14:09.897Z,47.70
2022-08-12T11:17:33.662Z,46.60
2022-08-12T11:19:47.264Z,45.50
2022-08-12T11:22:17.976Z,44.60
2022-08-12T11:24:51.365Z,43.70
2022-08-12T11:27:22.320Z,43.50
2022-08-12T11:30:01.667Z,43.40
2022-08-12T11:32:38.923Z,43.00
2022-08-12T11:35:11.777Z,42.20
2022-08-12T11:37:59.097Z,42.40
2022-08-12T11:40:47.365Z,42.50
2022-08-12T11:43:19.571Z,42.20
2022-08-12T11:45:52.863Z,42.50
2022-08-12T11:48:26.954Z,42.60
2022-08-12T11:50:56.936Z,42.40
2022-08-12T11:53:56.948Z,42.50
2022-08-12T11:56:14.963Z,42.40
2022-08-12T12:02:03.067Z,42.10
2022-08-12T12:04:28.915Z,42.10
2022-08-12T12:07:07.388Z,42.30
2022-08-12T12:09:52.192Z,42.20
2022-08-12T12:12:23.479Z,42.60
2022-08-12T12:14:55.922Z,42.80
2022-08-12T12:17:25.683Z,42.60
2022-08-12T12:20:02.513Z,42.30
2022-08-12T12:22:31.797Z,42.20
2022-08-12T12:25:13.230Z,42.10
2022-08-12T12:28:05.796Z,42.10
2022-08-12T12:30:37.739Z,42.20
2022-08-12T12:33:07.467Z,41.90
2022-08-12T12:36:19.858Z,41.90
2022-08-12T12:38:46.172Z,41.70
2022-08-12T12:41:16.363Z,41.50
2022-08-12T12:44:03.718Z,41.30
2022-08-12T12:46:34.870Z,41.20
2022-08-12T12:49:11.057Z,40.70
2022-08-12T12:52:06.808Z,40.70
2022-08-12T12:54:29.367Z,40.30
2022-08-12T12:56:58.501Z,39.90
2022-08-12T12:59:54.366Z,40.00
2022-08-12T13:02:44.801Z,40.20
2022-08-12T13:41:40.810Z,38.90
2022-08-12T13:44:35.815Z,39.80
2022-08-12T13:47:12.401Z,40.60
2022-08-12T13:49:53.535Z,41.10
2022-08-12T13:52:25.594Z,41.70
2022-08-12T13:54:56.591Z,42.30
2022-08-12T13:57:44.525Z,42.70
2022-08-12T14:00:17.301Z,43.50
2022-08-12T14:02:46.785Z,44.10
2022-08-12T14:05:30.167Z,44.60
2022-08-12T14:08:34.514Z,45.10
2022-08-12T14:11:03.822Z,45.50
2022-08-12T14:14:03.332Z,45.90
2022-08-12T14:16:37.557Z,46.50
2022-08-12T14:19:24.836Z,46.60
2022-08-12T14:22:01.016Z,47.00
2022-08-12T14:24:35.781Z,47.60
2022-08-12T14:27:09.252Z,47.60
2022-08-12T14:30:05.025Z,48.10
2022-08-12T14:33:03.854Z,48.70
2022-08-12T14:35:44.832Z,48.90
2022-08-12T14:38:25.785Z,49.00
2022-08-12T14:41:21.161Z,49.30
2022-08-12T14:44:04.747Z,49.30
2022-08-12T14:50:37.680Z,49.50
2022-08-12T14:59:23.990Z,49.70
2022-08-12T15:01:54.676Z,50.00
2022-08-12T15:04:45.389Z,50.20
2022-08-12T15:07:33.405Z,50.40
2022-08-12T15:10:03.960Z,50.70
2022-08-12T15:12:33.849Z,50.80
2022-08-12T15:15:02.900Z,51.00
2022-08-12T15:17:38.724Z,51.30
2022-08-12T15:20:31.198Z,51.50
2022-08-12T15:23:00.110Z,51.80
2022-08-12T15:25:29.278Z,52.10
2022-08-12T15:28:30.646Z,52.40
2022-08-12T15:31:02.473Z,52.70
2022-08-12T15:33:37.890Z,53.10
2022-08-12T15:36:19.527Z,53.20
2022-08-12T15:39:27.713Z,53.40
2022-08-12T15:41:57.023Z,53.70
2022-08-12T15:44:41.522Z,53.80
2022-08-12T15:47:12.048Z,53.90
2022-08-12T15:50:00.148Z,54.10
2022-08-12T15:52:31.970Z,54.10
2022-08-12T15:55:05.956Z,54.10
2022-08-12T15:57:41.643Z,54.30
2022-08-12T16:00:29.047Z,54.30
2022-08-12T16:03:05.494Z,54.50
2022-08-12T16:06:12.068Z,54.80
2022-08-12T16:08:27.441Z,54.80
2022-08-12T16:10:57.783Z,54.90
2022-08-12T16:13:34.930Z,54.80
2022-08-12T16:16:12.234Z,55.00
2022-08-12T16:18:59.571Z,55.20
2022-08-12T16:21:51.060Z,55.50
2022-08-12T16:24:23.595Z,55.60
2022-08-12T16:26:54.446Z,55.90
2022-08-12T16:29:52.196Z,56.10
2022-08-12T16:32:24.626Z,57.20
2022-08-12T16:35:01.989Z,58.80
2022-08-12T16:38:25.423Z,60.10
2022-08-12T16:40:46.154Z,60.60
2022-08-12T16:43:35.421Z,61.40
2022-08-12T16:46:31.639Z,62.10
2022-08-12T16:48:59.562Z,62.60
2022-08-12T16:51:40.275Z,63.20
2022-08-12T16:54:36.541Z,63.70
2022-08-12T16:57:09.717Z,63.80
2022-08-12T16:59:57.381Z,63.70
2022-08-12T17:02:33.620Z,63.80
2022-08-12T17:05:04.909Z,63.90
2022-08-12T17:07:43.261Z,64.30
2022-08-12T17:10:18.522Z,64.70
2022-08-12T17:13:09.455Z,64.80
2022-08-12T17:16:05.891Z,65.20
2022-08-12T17:18:42.355Z,65.50
2022-08-12T17:21:17.543Z,65.30
2022-08-12T17:23:53.757Z,65.60
2022-08-12T17:26:28.290Z,66.00
2022-08-12T17:29:01.956Z,65.80
2022-08-12T17:31:59.205Z,65.80
2022-08-12T17:34:39.268Z,65.90
2022-08-12T17:37:08.504Z,65.90
2022-08-12T17:40:12.353Z,66.30
2022-08-12T17:42:32.857Z,66.40
2022-08-12T17:45:17.799Z,66.20
2022-08-12T17:48:01.131Z,66.50
2022-08-12T17:50:32.496Z,66.70
2022-08-12T17:53:03.013Z,66.70
2022-08-12T17:55:40.380Z,67.10
2022-08-12T17:58:14.437Z,67.40
2022-08-12T18:00:45.821Z,67.60
2022-08-12T18:04:04.940Z,67.80
2022-08-12T18:06:14.136Z,67.90
2022-08-12T18:08:54.253Z,68.20
2022-08-12T18:12:04.926Z,68.30
2022-08-12T18:14:31.865Z,68.50
2022-08-12T18:17:02.687Z,68.70
2022-08-12T18:20:03.780Z,68.90
2022-08-12T18:22:22.020Z,69.10
2022-08-12T18:25:02.106Z,69.40
2022-08-12T18:27:47.002Z,69.70
2022-08-12T18:30:29.012Z,69.90
2022-08-12T18:33:03.698Z,70.10
2022-08-12T18:35:47.379Z,70.20
2022-08-12T18:38:22.648Z,70.40
2022-08-12T18:41:11.684Z,70.60
2022-08-12T18:43:58.750Z,70.80
2022-08-12T18:46:33.816Z,70.90
2022-08-12T18:49:17.229Z,71.10
2022-08-12T18:51:55.246Z,71.30
2022-08-12T18:54:32.277Z,71.50
2022-08-12T18:57:04.752Z,71.70
2022-08-12T19:00:02.533Z,71.90
2022-08-12T19:02:27.061Z,72.10
2022-08-12T19:04:58.614Z,72.20
2022-08-12T19:07:29.835Z,72.40
2022-08-12T19:10:17.658Z,72.60
2022-08-12T19:13:09.256Z,72.60
2022-08-12T19:15:43.193Z,72.70
2022-08-12T19:18:12.653Z,72.90
2022-08-12T19:20:44.134Z,73.20
2022-08-12T19:23:21.053Z,73.40
2022-08-12T19:25:59.580Z,73.40
2022-08-12T19:28:36.020Z,73.50
2022-08-12T19:31:44.813Z,73.80
2022-08-12T19:35:24.071Z,74.00
2022-08-12T19:37:27.546Z,74.20
2022-08-12T19:40:20.465Z,74.30
2022-08-12T19:43:01.590Z,74.70
2022-08-12T19:45:42.229Z,75.00
2022-08-12T19:48:16.543Z,75.20
2022-08-12T19:50:50.249Z,75.50
2022-08-12T19:53:23.527Z,75.80
2022-08-12T19:55:53.802Z,76.10
2022-08-12T19:58:23.348Z,76.40
2022-08-12T20:00:53.565Z,76.60
2022-08-12T20:03:39.029Z,76.90
2022-08-12T20:06:15.595Z,76.70
2022-08-12T20:08:48.021Z,76.80
2022-08-12T20:12:12.661Z,76.90
2022-08-12T20:14:07.695Z,77.00
2022-08-12T20:19:28.649Z,77.50
2022-08-12T20:22:23.948Z,77.70
2022-08-12T20:24:56.726Z,77.90
2022-08-12T20:27:29.593Z,77.90
2022-08-12T20:30:52.922Z,77.90
2022-08-12T20:33:50.256Z,77.90
2022-08-12T20:36:42.310Z,78.00
2022-08-12T20:39:37.142Z,78.00
2022-08-12T20:41:58.961Z,78.10
2022-08-12T20:44:33.347Z,78.20
2022-08-12T20:47:18.199Z,78.30
2022-08-12T20:49:55.529Z,78.30
2022-08-12T20:52:49.252Z,78.40
2022-08-12T20:55:19.271Z,78.50
2022-08-12T20:58:01.979Z,78.60
2022-08-12T21:00:33.656Z,78.60
2022-08-12T21:03:23.436Z,78.30
2022-08-12T21:06:13.200Z,78.20
2022-08-12T21:08:42.915Z,78.20
2022-08-12T21:11:11.864Z,78.20
2022-08-12T21:13:42.383Z,78.30
2022-08-12T21:16:11.720Z,78.40
2022-08-12T21:18:41.050Z,78.40
2022-08-12T21:21:23.953Z,78.60
2022-08-12T21:23:56.433Z,78.90
2022-08-12T21:26:28.018Z,79.20
2022-08-12T21:29:01.085Z,79.50
2022-08-12T21:32:38.016Z,79.80
2022-08-12T21:34:25.996Z,80.00
2022-08-12T21:37:27.351Z,80.40
2022-08-12T21:39:56.792Z,80.80
2022-08-12T21:42:28.081Z,81.20
2022-08-12T21:45:48.351Z,81.40
2022-08-12T21:47:53.267Z,81.70
2022-08-12T21:50:22.252Z,81.90
2022-08-12T21:52:57.905Z,82.10
2022-08-12T21:55:26.826Z,82.50
2022-08-12T21:58:16.573Z,82.70
2022-08-12T22:00:47.133Z,82.80
2022-08-12T22:04:03.498Z,82.90
2022-08-12T22:06:31.003Z,83.10
2022-08-12T22:09:19.311Z,83.20
2022-08-12T22:11:59.413Z,83.40
2022-08-12T22:14:45.170Z,83.50
2022-08-12T22:17:50.101Z,83.70
2022-08-12T22:21:00.937Z,83.90
2022-08-12T22:24:05.316Z,84.00
2022-08-12T22:26:37.878Z,84.20
2022-08-12T22:29:38.861Z,84.40
2022-08-12T22:32:26.329Z,84.60
2022-08-12T22:35:29.732Z,84.60
2022-08-12T22:38:35.267Z,84.80
2022-08-12T22:41:36.734Z,85.00
2022-08-12T22:44:54.793Z,85.20
2022-08-12T22:47:55.373Z,85.40
2022-08-12T22:50:40.618Z,85.50
2022-08-12T22:53:36.147Z,85.70
2022-08-12T22:56:36.330Z,86.00
2022-08-12T22:59:26.147Z,86.20
2022-08-12T23:02:31.657Z,86.30
2022-08-12T23:05:57.799Z,86.40
2022-08-12T23:08:35.409Z,86.50
2022-08-12T23:11:36.207Z,86.50
2022-08-12T23:14:26.983Z,86.70
2022-08-12T23:17:08.291Z,87.30
2022-08-12T23:20:13.322Z,86.80
2022-08-12T23:23:02.819Z,86.80
2022-08-12T23:25:55.887Z,86.80
2022-08-12T23:29:30.076Z,86.80
2022-08-12T23:32:37.021Z,86.80
2022-08-12T23:35:18.708Z,86.80
2022-08-12T23:37:59.527Z,86.90
2022-08-12T23:40:31.137Z,87.00
2022-08-12T23:43:01.808Z,87.20
2022-08-12T23:45:31.408Z,87.20
2022-08-12T23:48:03.283Z,87.40
2022-08-12T23:50:34.405Z,87.70
2022-08-12T23:53:05.670Z,87.80
2022-08-12T23:55:40.833Z,87.80
2022-08-12T23:58:21.510Z,88.10
